createdAt,value
2023-02-21T00:01:32.146Z,101862.38
2023-02-21T00:03:59.387Z,101869.53
2023-02-21T00:06:26.568Z,101867.91
2023-02-21T00:08:53.777Z,101847.16
2023-02-21T00:11:23.777Z,101831.69
2023-02-21T00:13:51.116Z,101814.53
2023-02-21T00:16:18.466Z,101787.44
2023-02-21T00:18:47.044Z,101759.63
2023-02-21T00:21:14.523Z,101721.41
2023-02-21T00:23:41.922Z,101698.66
2023-02-21T00:26:09.189Z,101666.78
2023-02-21T00:28:36.440Z,101630.16
2023-02-21T00:31:05.412Z,101573.25
2023-02-21T00:33:35.733Z,101530.63
2023-02-21T00:36:05.574Z,101505.22
2023-02-21T00:38:33.122Z,101461.00
2023-02-21T00:41:00.372Z,101433.16
2023-02-21T00:43:29.069Z,101400.22
2023-02-21T00:45:56.677Z,101395.97
2023-02-21T00:48:24.182Z,101357.06
2023-02-21T00:50:51.455Z,101363.47
2023-02-21T00:53:20.002Z,101362.69
2023-02-21T00:55:47.731Z,101350.38
2023-02-21T00:58:14.961Z,101336.53
2023-02-21T01:00:42.199Z,101353.22
2023-02-21T01:03:10.225Z,101365.59
2023-02-21T01:05:37.512Z,101362.00
2023-02-21T01:08:05.039Z,101377.09
2023-02-21T01:10:33.700Z,101378.72
2023-02-21T01:13:00.936Z,101384.66
2023-02-21T01:15:28.206Z,101397.44
2023-02-21T01:17:55.514Z,101400.56
2023-02-21T01:20:22.890Z,101403.72
2023-02-21T01:22:50.058Z,101409.66
2023-02-21T01:25:17.298Z,101401.66
2023-02-21T01:27:45.881Z,101416.44
2023-02-21T01:30:13.208Z,101418.84
2023-02-21T01:32:40.644Z,101433.25
2023-02-21T01:35:07.922Z,101430.09
2023-02-21T01:37:35.092Z,101451.25
2023-02-21T01:40:02.439Z,101469.50
2023-02-21T01:42:29.683Z,101479.81
2023-02-21T01:45:43.387Z,101484.91
2023-02-21T01:48:15.034Z,101496.91
2023-02-21T01:50:42.602Z,101518.69
2023-02-21T01:53:24.535Z,101540.97
2023-02-21T01:55:51.854Z,101542.59
2023-02-21T01:58:23.253Z,101564.09
2023-02-21T02:00:51.987Z,101560.94
2023-02-21T02:03:21.414Z,101574.47
2023-02-21T02:05:56.622Z,101584.41
2023-02-21T02:08:27.950Z,101584.47
2023-02-21T02:11:04.964Z,101600.78
2023-02-21T02:13:47.856Z,101619.84
2023-02-21T02:16:24.682Z,101604.72
2023-02-21T02:19:23.936Z,101635.78
2023-02-21T02:22:19.043Z,101632.94
2023-02-21T02:25:06.985Z,101639.72
2023-02-21T02:27:55.573Z,101646.84
2023-02-21T02:31:13.978Z,101641.28
2023-02-21T02:34:20.149Z,101640.50
2023-02-21T02:36:53.181Z,101662.44
2023-02-21T02:39:28.716Z,101677.53
2023-02-21T02:42:05.075Z,101695.47
2023-02-21T02:44:39.185Z,101693.06
2023-02-21T02:47:10.966Z,101709.75
2023-02-21T02:49:42.608Z,101730.06
2023-02-21T02:52:11.288Z,101744.78
2023-02-21T02:54:38.574Z,101765.50
2023-02-21T02:57:09.231Z,101773.03
2023-02-21T02:59:40.970Z,101795.69
2023-02-21T03:02:29.706Z,101801.66
2023-02-21T03:05:23.628Z,101814.75
2023-02-21T03:07:59.649Z,101838.97
2023-02-21T03:10:38.262Z,101834.59
2023-02-21T03:13:16.377Z,101848.94
2023-02-21T03:15:48.834Z,101857.28
2023-02-21T03:18:21.296Z,101860.06
2023-02-21T03:20:54.223Z,101860.88
2023-02-21T03:23:26.462Z,101872.44
2023-02-21T03:25:56.008Z,101891.09
2023-02-21T03:28:24.354Z,101919.75
2023-02-21T03:30:55.137Z,101920.56
2023-02-21T03:33:23.849Z,101944.81
2023-02-21T03:35:53.205Z,101966.69
2023-02-21T03:38:20.605Z,102014.78
2023-02-21T03:40:51.126Z,102012.03
2023-02-21T03:43:18.685Z,102039.88
2023-02-21T03:45:52.727Z,102072.88
2023-02-21T03:48:30.943Z,102103.09
2023-02-21T03:51:01.766Z,102138.91
2023-02-21T03:53:34.646Z,102197.34
2023-02-21T03:56:05.727Z,102249.81
2023-02-21T03:58:49.585Z,102305.47
2023-02-21T04:01:17.576Z,102368.69
2023-02-21T04:03:45.159Z,102450.19
2023-02-21T04:06:12.561Z,102530.50
2023-02-21T04:08:39.836Z,102612.03
2023-02-21T04:11:08.552Z,102691.13
2023-02-21T04:13:36.908Z,102772.22
2023-02-21T04:16:04.796Z,102831.09
2023-02-21T04:18:36.267Z,102887.53
2023-02-21T04:21:06.157Z,102936.81
2023-02-21T04:23:33.651Z,102991.25
2023-02-21T04:26:01.108Z,103029.03
2023-02-21T04:28:38.851Z,103085.13
2023-02-21T04:31:06.501Z,103120.47
2023-02-21T04:33:34.176Z,103172.97
2023-02-21T04:36:01.728Z,103208.34
2023-02-21T04:38:36.143Z,103240.97
2023-02-21T04:41:03.454Z,103271.94
2023-02-21T04:43:30.771Z,103319.28
2023-02-21T04:46:00.615Z,103340.34
2023-02-21T04:48:27.837Z,103368.56
2023-02-21T04:50:59.156Z,103400.41
2023-02-21T04:53:28.871Z,103413.91
2023-02-21T04:55:56.130Z,103437.78
2023-02-21T04:58:24.515Z,103473.97
2023-02-21T05:00:53.027Z,103494.31
2023-02-21T05:03:21.654Z,103509.41
2023-02-21T05:05:48.821Z,103539.94
2023-02-21T05:08:16.168Z,103559.81
2023-02-21T05:10:48.304Z,103580.91
2023-02-21T05:13:16.415Z,103608.00
2023-02-21T05:15:43.676Z,103624.63
2023-02-21T05:18:10.918Z,103653.38
2023-02-21T05:20:39.456Z,103681.53
2023-02-21T05:23:13.475Z,103706.59
2023-02-21T05:25:41.363Z,103725.66
2023-02-21T05:28:09.099Z,103741.19
2023-02-21T05:30:36.497Z,103747.94
2023-02-21T05:33:03.749Z,103772.16
2023-02-21T05:35:31.119Z,103793.63
2023-02-21T05:37:59.680Z,103815.06
2023-02-21T05:40:27.305Z,103840.59
2023-02-21T05:42:54.553Z,103858.84
2023-02-21T05:45:23.107Z,103865.53
2023-02-21T05:47:50.304Z,103881.00
2023-02-21T05:50:17.609Z,103897.34
2023-02-21T05:52:44.840Z,103911.63
2023-02-21T05:55:13.547Z,103936.22
2023-02-21T05:57:40.791Z,103954.97
2023-02-21T06:00:13.906Z,103959.84
2023-02-21T06:02:41.283Z,103984.09
2023-02-21T06:05:08.730Z,103992.00
2023-02-21T06:07:36.025Z,104015.09
2023-02-21T06:10:03.846Z,104011.72
2023-02-21T06:12:32.534Z,104041.19
2023-02-21T06:15:00.036Z,104045.25
2023-02-21T06:17:27.360Z,104055.44
2023-02-21T06:19:55.835Z,104067.88
2023-02-21T06:22:23.040Z,104088.50
2023-02-21T06:24:52.118Z,104092.91
2023-02-21T06:27:19.488Z,104100.81
2023-02-21T06:29:48.024Z,104110.31
2023-02-21T06:32:15.430Z,104130.25
2023-02-21T06:34:44.434Z,104140.69
2023-02-21T06:37:11.757Z,104147.78
2023-02-21T06:39:39.089Z,104162.16
2023-02-21T06:42:06.373Z,104171.53
2023-02-21T06:44:33.552Z,104192.19
2023-02-21T06:47:02.125Z,104189.19
2023-02-21T06:49:29.339Z,104198.59
2023-02-21T06:51:56.731Z,104200.19
2023-02-21T06:54:23.942Z,104210.63
2023-02-21T06:56:51.147Z,104211.09
2023-02-21T06:59:18.503Z,104212.63
2023-02-21T07:01:45.928Z,104227.31
2023-02-21T07:04:14.520Z,104221.75
2023-02-21T07:06:41.686Z,104239.28
2023-02-21T07:09:08.874Z,104239.75
2023-02-21T07:11:36.124Z,104259.13
2023-02-21T07:14:03.672Z,104284.28
2023-02-21T07:16:31.043Z,104278.59
2023-02-21T07:18:58.258Z,104287.78
2023-02-21T07:21:27.457Z,104297.03
2023-02-21T07:23:54.653Z,104298.91
2023-02-21T07:26:22.073Z,104311.19
2023-02-21T07:28:49.712Z,104323.97
2023-02-21T07:31:19.334Z,104339.63
2023-02-21T07:33:46.966Z,104341.59
2023-02-21T07:36:14.306Z,104347.38
2023-02-21T07:38:42.956Z,104358.28
2023-02-21T07:41:10.515Z,104369.78
2023-02-21T07:43:37.741Z,104386.13
2023-02-21T07:46:09.010Z,104386.34
2023-02-21T07:48:36.338Z,104384.88
2023-02-21T07:51:03.740Z,104391.94
2023-02-21T07:53:30.950Z,104403.06
2023-02-21T07:55:59.487Z,104426.16
2023-02-21T07:58:26.754Z,104434.97
2023-02-21T08:00:53.971Z,104437.41
2023-02-21T08:03:22.075Z,104448.78
2023-02-21T08:05:49.414Z,104439.59
2023-02-21T08:08:16.718Z,104457.13
2023-02-21T08:10:43.885Z,104463.59
2023-02-21T08:13:12.522Z,104475.69
2023-02-21T08:15:39.786Z,104484.53
2023-02-21T08:18:07.098Z,104491.72
2023-02-21T08:20:34.275Z,104491.72
2023-02-21T08:23:01.695Z,104498.78
2023-02-21T08:25:28.908Z,104502.72
2023-02-21T08:27:56.185Z,104505.19
2023-02-21T08:30:24.822Z,104526.06
2023-02-21T08:32:52.148Z,104534.44
2023-02-21T08:35:20.597Z,104540.13
2023-02-21T08:37:49.409Z,104543.94
2023-02-21T08:40:19.704Z,104552.78
2023-02-21T08:42:49.811Z,104553.22
2023-02-21T08:45:19.894Z,104573.88
2023-02-21T08:47:49.216Z,104567.16
2023-02-21T08:50:16.517Z,104572.06
2023-02-21T08:52:46.337Z,104574.38
2023-02-21T08:55:13.984Z,104581.06
2023-02-21T08:57:41.326Z,104586.13
2023-02-21T09:00:11.089Z,104596.91
2023-02-21T09:02:38.734Z,104600.03
2023-02-21T09:05:08.582Z,104612.44
2023-02-21T09:07:36.125Z,104605.75
2023-02-21T09:10:03.707Z,104611.44
2023-02-21T09:12:30.980Z,104616.53
2023-02-21T09:14:58.216Z,104615.03
2023-02-21T09:17:25.600Z,104625.59
2023-02-21T09:19:52.873Z,104630.50
2023-02-21T09:22:21.499Z,104634.56
2023-02-21T09:24:48.850Z,104639.22
2023-02-21T09:27:16.158Z,104652.94
2023-02-21T09:29:46.285Z,104648.63
2023-02-21T09:32:14.414Z,104656.31
2023-02-21T09:34:41.672Z,104648.63
2023-02-21T09:37:09.088Z,104646.91
2023-02-21T09:39:38.700Z,104645.97
2023-02-21T09:42:06.330Z,104650.75
2023-02-21T09:44:34.764Z,104645.28
2023-02-21T09:47:06.044Z,104647.63
2023-02-21T09:49:37.191Z,104645.75
2023-02-21T09:52:07.153Z,104650.91
2023-02-21T09:54:41.158Z,104640.91
2023-02-21T09:57:13.842Z,104628.03
2023-02-21T09:59:41.087Z,104615.13
2023-02-21T10:02:30.333Z,104609.47
2023-02-21T10:05:03.411Z,104595.25
2023-02-21T10:07:39.090Z,104563.19
2023-02-21T10:10:14.975Z,104531.56
2023-02-21T10:12:51.409Z,104483.22
2023-02-21T10:15:31.418Z,104434.53
2023-02-21T10:18:05.620Z,104350.09
2023-02-21T10:20:38.576Z,104281.50
2023-02-21T10:23:14.886Z,104185.00
2023-02-21T10:25:45.598Z,104104.88
2023-02-21T10:28:18.706Z,103985.94
2023-02-21T10:30:48.644Z,103874.47
2023-02-21T10:33:16.543Z,103764.03
2023-02-21T10:35:44.261Z,103645.31
2023-02-21T10:38:15.035Z,103470.19
2023-02-21T10:40:46.516Z,103281.50
2023-02-21T10:43:19.321Z,103124.31
2023-02-21T10:45:53.368Z,103033.53
2023-02-21T10:48:24.659Z,102945.09
2023-02-21T10:51:04.150Z,102913.59
2023-02-21T10:53:34.657Z,102889.66
2023-02-21T10:56:26.965Z,102860.59
2023-02-21T10:58:57.452Z,102831.53
2023-02-21T11:01:36.450Z,102813.25
2023-02-21T11:04:06.594Z,102784.91
2023-02-21T11:06:37.275Z,102738.28
2023-02-21T11:09:29.735Z,102702.00
2023-02-21T11:12:04.416Z,102663.34
2023-02-21T11:14:33.237Z,102648.97
2023-02-21T11:17:14.129Z,102596.75
2023-02-21T11:19:53.098Z,102564.06
2023-02-21T11:22:23.822Z,102547.28
2023-02-21T11:25:00.092Z,102534.47
2023-02-21T11:27:31.702Z,102493.88
2023-02-21T11:30:00.859Z,102454.31
2023-02-21T11:32:31.636Z,102410.47
2023-02-21T11:35:21.281Z,102382.50
2023-02-21T11:37:51.960Z,102342.25
2023-02-21T11:40:29.233Z,102319.50
2023-02-21T11:43:20.070Z,102295.78
2023-02-21T11:46:10.845Z,102256.75
2023-02-21T11:48:45.227Z,102222.66
2023-02-21T11:51:25.238Z,102211.28
2023-02-21T11:53:53.085Z,102181.72
2023-02-21T11:56:32.244Z,102157.06
2023-02-21T11:59:12.815Z,102122.56
2023-02-21T12:01:47.087Z,102103.31
2023-02-21T12:04:37.036Z,102069.00
2023-02-21T12:07:14.222Z,102029.94
2023-02-21T12:09:47.590Z,102018.91
2023-02-21T12:12:31.033Z,101995.31
2023-02-21T12:15:13.950Z,101970.25
2023-02-21T12:18:19.158Z,101963.13
2023-02-21T12:21:04.722Z,101958.00
2023-02-21T12:23:40.574Z,101948.25
2023-02-21T12:26:21.432Z,101932.94
2023-02-21T12:29:12.856Z,101916.88
2023-02-21T12:31:56.379Z,101914.13
2023-02-21T12:34:38.743Z,101920.19
2023-02-21T12:37:26.146Z,101903.44
2023-02-21T12:40:03.807Z,101902.22
2023-02-21T12:42:53.014Z,101893.63
2023-02-21T12:45:37.180Z,101896.19
2023-02-21T12:48:12.379Z,101866.13
2023-02-21T12:50:43.050Z,101852.25
2023-02-21T12:53:16.034Z,101818.41
2023-02-21T12:55:47.589Z,101799.63
2023-02-21T12:58:23.768Z,101782.00
2023-02-21T13:00:56.203Z,101739.72
2023-02-21T13:03:40.043Z,101714.56
2023-02-21T13:06:15.589Z,101683.91
2023-02-21T13:08:53.688Z,101647.09
2023-02-21T13:11:25.482Z,101611.19
2023-02-21T13:13:52.801Z,101598.97
2023-02-21T13:16:20.616Z,101574.94
2023-02-21T13:18:52.703Z,101546.38
2023-02-21T13:21:32.344Z,101525.56
2023-02-21T13:24:26.030Z,101501.69
2023-02-21T13:27:09.400Z,101494.47
2023-02-21T13:29:39.232Z,101474.19
2023-02-21T13:32:09.886Z,101490.97
2023-02-21T13:34:40.845Z,101470.72
2023-02-21T13:37:15.680Z,101474.69
2023-02-21T13:39:46.873Z,101469.81
2023-02-21T13:42:18.413Z,101464.56
2023-02-21T13:44:49.204Z,101465.63
2023-02-21T13:47:18.306Z,101466.16
2023-02-21T13:49:57.079Z,101450.16
2023-02-21T13:52:36.825Z,101444.84
2023-02-21T13:55:31.189Z,101435.41
2023-02-21T13:58:40.835Z,101415.72
2023-02-21T14:01:46.240Z,101403.75
2023-02-21T14:05:02.103Z,101387.78
2023-02-21T14:07:59.879Z,101377.28
2023-02-21T14:10:41.611Z,101380.59
2023-02-21T14:13:21.089Z,101380.69
2023-02-21T14:15:56.293Z,101365.16
2023-02-21T14:18:28.832Z,101350.84
2023-02-21T14:20:57.600Z,101363.66
2023-02-21T14:23:37.668Z,101339.22
2023-02-21T14:26:05.278Z,101339.41
2023-02-21T14:29:00.309Z,101334.59
2023-02-21T14:31:51.689Z,101319.66
2023-02-21T14:34:24.689Z,101320.38
2023-02-21T14:36:56.896Z,101315.63
2023-02-21T14:39:31.420Z,101316.88
2023-02-21T14:42:17.502Z,101304.91
2023-02-21T14:45:01.000Z,101313.50
2023-02-21T14:47:45.794Z,101310.00
2023-02-21T14:50:28.216Z,101309.47
2023-02-21T14:53:22.490Z,101310.34
2023-02-21T14:56:16.760Z,101297.19
2023-02-21T14:59:04.312Z,101288.13
2023-02-21T15:01:43.882Z,101295.97
2023-02-21T15:04:17.850Z,101306.66
2023-02-21T15:06:59.158Z,101307.28
2023-02-21T15:09:27.093Z,101310.72
2023-02-21T15:11:56.040Z,101301.69
2023-02-21T15:14:25.759Z,101302.22
2023-02-21T15:16:55.888Z,101310.94
2023-02-21T15:19:29.003Z,101307.53
2023-02-21T15:22:25.158Z,101314.09
2023-02-21T15:25:14.355Z,101313.81
2023-02-21T15:28:20.997Z,101320.53
2023-02-21T15:30:58.388Z,101313.25
2023-02-21T15:33:27.775Z,101314.06
2023-02-21T15:35:58.231Z,101321.75
2023-02-21T15:38:31.108Z,101317.41
2023-02-21T15:41:03.202Z,101319.03
2023-02-21T15:43:41.682Z,101323.69
2023-02-21T15:46:16.142Z,101331.69
2023-02-21T15:48:43.682Z,101318.41
2023-02-21T15:51:12.303Z,101329.94
2023-02-21T15:53:39.599Z,101327.25
2023-02-21T15:56:24.284Z,101332.53
2023-02-21T15:59:11.562Z,101324.69
2023-02-21T16:01:39.099Z,101334.47
2023-02-21T16:04:20.890Z,101328.44
2023-02-21T16:06:52.872Z,101340.03
2023-02-21T16:09:29.273Z,101337.06
2023-02-21T16:12:00.302Z,101349.72
2023-02-21T16:14:38.248Z,101342.56
2023-02-21T16:17:24.080Z,101351.88
2023-02-21T16:19:54.205Z,101357.03
2023-02-21T16:22:30.398Z,101366.19
2023-02-21T16:25:18.150Z,101370.19
2023-02-21T16:27:48.418Z,101374.19
2023-02-21T16:30:20.077Z,101382.00
2023-02-21T16:32:50.702Z,101379.50
2023-02-21T16:35:20.620Z,101383.72
2023-02-21T16:37:49.417Z,101395.50
2023-02-21T16:40:19.125Z,101389.16
2023-02-21T16:42:46.308Z,101403.63
2023-02-21T16:45:13.880Z,101401.16
2023-02-21T16:47:42.610Z,101401.66
2023-02-21T16:50:16.494Z,101402.09
2023-02-21T16:52:43.856Z,101413.19
2023-02-21T16:55:14.799Z,101404.66
2023-02-21T16:57:42.118Z,101404.22
2023-02-21T17:00:10.536Z,101419.63
2023-02-21T17:02:37.895Z,101417.13
2023-02-21T17:05:06.673Z,101424.63
2023-02-21T17:07:33.959Z,101433.63
2023-02-21T17:10:01.152Z,101437.50
2023-02-21T17:12:28.390Z,101439.59
2023-02-21T17:14:55.557Z,101453.22
2023-02-21T17:17:23.302Z,101451.44
2023-02-21T17:19:50.515Z,101455.38
2023-02-21T17:22:19.402Z,101458.16
2023-02-21T17:24:46.659Z,101459.53
2023-02-21T17:27:14.023Z,101461.03
2023-02-21T17:29:41.398Z,101469.03
2023-02-21T17:32:08.612Z,101473.84
2023-02-21T17:34:37.151Z,101467.41
2023-02-21T17:37:04.775Z,101471.53
2023-02-21T17:39:33.305Z,101474.31
2023-02-21T17:42:00.541Z,101477.59
2023-02-21T17:44:28.364Z,101475.19
2023-02-21T17:46:57.195Z,101483.25
2023-02-21T17:49:27.745Z,101485.97
2023-02-21T17:51:55.195Z,101488.00
2023-02-21T17:54:24.308Z,101493.97
2023-02-21T17:56:53.120Z,101492.34
2023-02-21T17:59:20.371Z,101496.34
2023-02-21T18:01:47.826Z,101502.81
2023-02-21T18:04:15.206Z,101506.47
2023-02-21T18:06:42.654Z,101504.91
2023-02-21T18:09:10.170Z,101510.19
2023-02-21T18:11:37.906Z,101511.63
2023-02-21T18:14:06.526Z,101529.88
2023-02-21T18:16:33.744Z,101539.19
2023-02-21T18:19:00.893Z,101540.41
2023-02-21T18:21:28.217Z,101541.28
2023-02-21T18:23:55.466Z,101556.28
2023-02-21T18:26:22.917Z,101554.72
2023-02-21T18:28:50.244Z,101564.78
2023-02-21T18:31:20.069Z,101573.06
2023-02-21T18:33:48.706Z,101578.81
2023-02-21T18:36:16.280Z,101581.22
2023-02-21T18:38:43.604Z,101593.88
2023-02-21T18:41:11.972Z,101592.38
2023-02-21T18:43:40.139Z,101598.41
2023-02-21T18:46:10.145Z,101600.34
2023-02-21T18:48:41.908Z,101608.03
2023-02-21T18:51:10.310Z,101597.25
2023-02-21T18:53:37.901Z,101609.38
2023-02-21T18:56:09.240Z,101608.41
2023-02-21T18:58:36.988Z,101611.31
2023-02-21T19:01:05.003Z,101615.66
2023-02-21T19:03:32.770Z,101626.50
2023-02-21T19:06:01.404Z,101625.19
2023-02-21T19:08:28.732Z,101627.59
2023-02-21T19:10:56.002Z,101633.13
2023-02-21T19:13:23.315Z,101628.03
2023-02-21T19:15:50.562Z,101627.53
2023-02-21T19:18:17.947Z,101639.28
2023-02-21T19:20:45.175Z,101630.09
2023-02-21T19:23:13.784Z,101627.97
2023-02-21T19:25:41.134Z,101642.06
2023-02-21T19:28:08.402Z,101636.59
2023-02-21T19:30:35.693Z,101646.94
2023-02-21T19:33:05.348Z,101649.47
2023-02-21T19:35:33.982Z,101654.16
2023-02-21T19:38:03.566Z,101659.72
2023-02-21T19:40:32.713Z,101660.81
2023-02-21T19:43:00.071Z,101665.28
2023-02-21T19:45:28.853Z,101667.59
2023-02-21T19:47:56.284Z,101670.78
2023-02-21T19:50:23.885Z,101662.88
2023-02-21T19:52:52.579Z,101672.91
2023-02-21T19:55:20.439Z,101670.88
2023-02-21T19:57:49.384Z,101672.34
2023-02-21T20:00:17.191Z,101671.50
2023-02-21T20:02:44.531Z,101675.13
2023-02-21T20:05:12.317Z,101661.38
2023-02-21T20:07:39.879Z,101665.25
2023-02-21T20:10:08.183Z,101671.72
2023-02-21T20:12:35.829Z,101664.53
2023-02-21T20:15:05.889Z,101669.66
2023-02-21T20:17:34.924Z,101663.84
2023-02-21T20:20:02.323Z,101670.16
2023-02-21T20:22:29.587Z,101669.34
2023-02-21T20:24:56.840Z,101676.47
2023-02-21T20:27:24.136Z,101668.50
2023-02-21T20:29:51.321Z,101670.41
2023-02-21T20:32:20.073Z,101657.66
2023-02-21T20:34:47.333Z,101656.50
2023-02-21T20:37:14.610Z,101656.56
2023-02-21T20:39:41.816Z,101657.41
2023-02-21T20:42:09.021Z,101654.66
2023-02-21T20:44:37.895Z,101659.81
2023-02-21T20:47:06.413Z,101651.69
2023-02-21T20:49:35.591Z,101646.97
2023-02-21T20:52:03.827Z,101644.66
2023-02-21T20:54:31.176Z,101639.00
2023-02-21T20:56:58.460Z,101636.31
2023-02-21T20:59:27.475Z,101640.31
2023-02-21T21:01:55.509Z,101635.97
2023-02-21T21:04:24.971Z,101628.75
2023-02-21T21:06:55.543Z,101629.53
2023-02-21T21:09:22.823Z,101622.41
2023-02-21T21:11:50.467Z,101617.56
2023-02-21T21:14:17.915Z,101623.22
2023-02-21T21:16:45.175Z,101612.03
2023-02-21T21:19:12.381Z,101622.09
2023-02-21T21:21:39.669Z,101624.06
2023-02-21T21:24:08.456Z,101620.06
2023-02-21T21:26:35.842Z,101620.00
2023-02-21T21:29:05.946Z,101611.28
2023-02-21T21:31:33.657Z,101622.63
2023-02-21T21:34:01.233Z,101616.25
2023-02-21T21:36:28.748Z,101613.41
2023-02-21T21:38:55.996Z,101618.66
2023-02-21T21:41:24.928Z,101620.22
2023-02-21T21:43:52.307Z,101614.53
2023-02-21T21:46:19.914Z,101618.59
2023-02-21T21:48:47.273Z,101614.13
2023-02-21T21:51:14.982Z,101606.59
2023-02-21T21:53:42.612Z,101607.50
2023-02-21T21:56:10.062Z,101599.47
2023-02-21T21:58:38.621Z,101605.09
2023-02-21T22:01:05.923Z,101600.25
2023-02-21T22:03:33.233Z,101600.41
2023-02-21T22:06:00.641Z,101594.00
2023-02-21T22:08:29.040Z,101598.78
2023-02-21T22:10:56.968Z,101601.66
2023-02-21T22:13:24.282Z,101600.88
2023-02-21T22:15:54.218Z,101599.59
2023-02-21T22:18:21.523Z,101598.88
2023-02-21T22:20:48.858Z,101600.09
2023-02-21T22:23:17.708Z,101593.91
2023-02-21T22:25:45.342Z,101596.00
2023-02-21T22:28:13.195Z,101598.88
2023-02-21T22:30:40.757Z,101593.31
2023-02-21T22:33:15.488Z,101591.22
2023-02-21T22:35:42.814Z,101596.84
2023-02-21T22:38:10.073Z,101585.66
2023-02-21T22:40:37.327Z,101591.78
2023-02-21T22:43:06.067Z,101585.66
2023-02-21T22:45:33.380Z,101589.72
2023-02-21T22:48:02.060Z,101580.31
2023-02-21T22:50:31.206Z,101585.78
2023-02-21T22:53:00.174Z,101585.78
2023-02-21T22:55:28.282Z,101585.00
2023-02-21T22:57:57.548Z,101585.50
2023-02-21T23:00:27.162Z,101579.16
2023-02-21T23:02:54.371Z,101582.31
2023-02-21T23:05:21.961Z,101570.38
2023-02-21T23:07:52.624Z,101577.63
2023-02-21T23:10:21.943Z,101576.78
2023-02-21T23:12:50.524Z,101572.81
2023-02-21T23:15:18.560Z,101571.72
2023-02-21T23:17:48.049Z,101574.41
2023-02-21T23:20:18.851Z,101570.59
2023-02-21T23:22:47.418Z,101574.00
2023-02-21T23:25:19.982Z,101575.31
2023-02-21T23:27:48.970Z,101575.78
2023-02-21T23:30:17.447Z,101574.50
2023-02-21T23:32:45.997Z,101575.34
2023-02-21T23:35:14.129Z,101576.78
2023-02-21T23:37:41.866Z,101579.06
2023-02-21T23:40:11.762Z,101578.47
2023-02-21T23:42:40.431Z,101583.09
2023-02-21T23:45:08.289Z,101579.09
2023-02-21T23:47:35.742Z,101583.56
2023-02-21T23:50:03.073Z,101580.00
2023-02-21T23:52:30.403Z,101572.63
2023-02-21T23:54:57.710Z,101568.94
2023-02-21T23:57:24.980Z,101570.59
2023-02-21T23:59:53.648Z,101558.69
